sensor_id;sensor_type;location;lat;lon;timestamp;temperature;humidity
13589;DHT22;6865;52.552;13.434;2023-01-25T00:01:54;2.20;99.90
13589;DHT22;6865;52.552;13.434;2023-01-25T00:04:22;2.50;99.90
13589;DHT22;6865;52.552;13.434;2023-01-25T00:06:49;0.80;99.90
13589;DHT22;6865;52.552;13.434;2023-01-25T00:09:16;2.10;99.90
13589;DHT22;6865;52.552;13.434;2023-01-25T00:11:43;2.30;99.90
13589;DHT22;6865;52.552;13.434;2023-01-25T00:14:11;2.20;99.90
13589;DHT22;6865;52.552;13.434;2023-01-25T00:16:38;2.30;99.90
13589;DHT22;6865;52.552;13.434;2023-01-25T00:19:06;2.30;99.90
13589;DHT22;6865;52.552;13.434;2023-01-25T00:21:33;2.20;99.90
13589;DHT22;6865;52.552;13.434;2023-01-25T00:24:01;2.30;99.90
13589;DHT22;6865;52.552;13.434;2023-01-25T00:26:34;2.20;99.90
13589;DHT22;6865;52.552;13.434;2023-01-25T00:29:02;1.90;99.90
13589;DHT22;6865;52.552;13.434;2023-01-25T00:31:39;1.90;99.90
13589;DHT22;6865;52.552;13.434;2023-01-25T00:37:17;3.40;99.90
13589;DHT22;6865;52.552;13.434;2023-01-25T00:39:46;2.00;99.90
13589;DHT22;6865;52.552;13.434;2023-01-25T00:42:14;1.90;99.90
13589;DHT22;6865;52.552;13.434;2023-01-25T00:44:41;2.00;99.90
13589;DHT22;6865;52.552;13.434;2023-01-25T00:47:09;2.10;99.90
13589;DHT22;6865;52.552;13.434;2023-01-25T00:49:38;2.00;99.90
13589;DHT22;6865;52.552;13.434;2023-01-25T00:52:05;1.90;99.90
13589;DHT22;6865;52.552;13.434;2023-01-25T00:54:32;1.80;99.90
13589;DHT22;6865;52.552;13.434;2023-01-25T00:56:59;1.80;99.90
13589;DHT22;6865;52.552;13.434;2023-01-25T00:59:25;1.90;99.90
13589;DHT22;6865;52.552;13.434;2023-01-25T01:01:53;2.20;99.90
13589;DHT22;6865;52.552;13.434;2023-01-25T01:04:20;2.10;99.90
13589;DHT22;6865;52.552;13.434;2023-01-25T01:06:51;2.20;99.90
13589;DHT22;6865;52.552;13.434;2023-01-25T01:09:22;2.30;99.90
13589;DHT22;6865;52.552;13.434;2023-01-25T01:11:49;2.40;99.90
13589;DHT22;6865;52.552;13.434;2023-01-25T01:14:15;2.40;99.90
13589;DHT22;6865;52.552;13.434;2023-01-25T01:16:42;2.40;99.90
13589;DHT22;6865;52.552;13.434;2023-01-25T01:19:08;2.40;99.90
13589;DHT22;6865;52.552;13.434;2023-01-25T01:21:35;2.30;99.90
13589;DHT22;6865;52.552;13.434;2023-01-25T01:24:02;2.40;99.90
13589;DHT22;6865;52.552;13.434;2023-01-25T01:26:29;2.30;99.90
13589;DHT22;6865;52.552;13.434;2023-01-25T01:28:57;2.30;99.90
13589;DHT22;6865;52.552;13.434;2023-01-25T01:31:24;2.30;99.90
13589;DHT22;6865;52.552;13.434;2023-01-25T01:33:52;2.20;99.90
13589;DHT22;6865;52.552;13.434;2023-01-25T01:36:21;2.20;99.90
13589;DHT22;6865;52.552;13.434;2023-01-25T01:38:48;2.20;99.90
13589;DHT22;6865;52.552;13.434;2023-01-25T01:41:16;2.10;99.90
13589;DHT22;6865;52.552;13.434;2023-01-25T01:43:42;2.10;99.90
13589;DHT22;6865;52.552;13.434;2023-01-25T01:46:32;2.10;99.90
13589;DHT22;6865;52.552;13.434;2023-01-25T01:49:12;2.00;99.90
13589;DHT22;6865;52.552;13.434;2023-01-25T01:54:24;2.10;99.90
13589;DHT22;6865;52.552;13.434;2023-01-25T01:57:03;2.10;99.90
13589;DHT22;6865;52.552;13.434;2023-01-25T01:59:36;2.10;99.90
13589;DHT22;6865;52.552;13.434;2023-01-25T02:02:05;2.10;99.90
13589;DHT22;6865;52.552;13.434;2023-01-25T02:04:33;2.00;99.90
13589;DHT22;6865;52.552;13.434;2023-01-25T02:07:07;2.00;99.90
13589;DHT22;6865;52.552;13.434;2023-01-25T02:09:36;2.00;99.90
13589;DHT22;6865;52.552;13.434;2023-01-25T02:12:05;2.10;99.90
13589;DHT22;6865;52.552;13.434;2023-01-25T02:14:33;2.10;99.90
13589;DHT22;6865;52.552;13.434;2023-01-25T02:17:00;2.00;99.90
13589;DHT22;6865;52.552;13.434;2023-01-25T02:22:52;2.10;99.90
13589;DHT22;6865;52.552;13.434;2023-01-25T02:25:20;2.10;99.90
13589;DHT22;6865;52.552;13.434;2023-01-25T02:27:52;2.10;99.90
13589;DHT22;6865;52.552;13.434;2023-01-25T02:30:20;2.20;99.90
13589;DHT22;6865;52.552;13.434;2023-01-25T02:32:47;2.20;99.90
13589;DHT22;6865;52.552;13.434;2023-01-25T02:35:23;2.20;99.90
13589;DHT22;6865;52.552;13.434;2023-01-25T02:37:50;2.20;99.90
13589;DHT22;6865;52.552;13.434;2023-01-25T02:40:17;2.20;99.90
13589;DHT22;6865;52.552;13.434;2023-01-25T02:42:44;2.50;99.90
13589;DHT22;6865;52.552;13.434;2023-01-25T02:45:14;2.20;99.90
13589;DHT22;6865;52.552;13.434;2023-01-25T02:47:42;2.20;99.90
13589;DHT22;6865;52.552;13.434;2023-01-25T02:50:09;2.20;99.90
13589;DHT22;6865;52.552;13.434;2023-01-25T02:52:36;2.30;99.90
13589;DHT22;6865;52.552;13.434;2023-01-25T02:55:02;2.30;99.90
13589;DHT22;6865;52.552;13.434;2023-01-25T02:57:29;2.30;99.90
13589;DHT22;6865;52.552;13.434;2023-01-25T02:59:55;2.20;99.90
13589;DHT22;6865;52.552;13.434;2023-01-25T03:02:22;2.20;99.90
13589;DHT22;6865;52.552;13.434;2023-01-25T03:04:49;2.20;99.90
13589;DHT22;6865;52.552;13.434;2023-01-25T03:07:16;2.20;99.90
13589;DHT22;6865;52.552;13.434;2023-01-25T03:09:43;2.20;99.90
13589;DHT22;6865;52.552;13.434;2023-01-25T03:12:09;2.20;99.90
13589;DHT22;6865;52.552;13.434;2023-01-25T03:14:36;2.20;99.90
13589;DHT22;6865;52.552;13.434;2023-01-25T03:17:03;2.20;99.90
13589;DHT22;6865;52.552;13.434;2023-01-25T03:19:30;2.20;99.90
13589;DHT22;6865;52.552;13.434;2023-01-25T03:21:56;2.20;99.90
13589;DHT22;6865;52.552;13.434;2023-01-25T03:24:24;2.30;99.90
13589;DHT22;6865;52.552;13.434;2023-01-25T03:26:51;1.90;99.90
13589;DHT22;6865;52.552;13.434;2023-01-25T03:29:36;2.30;99.90
13589;DHT22;6865;52.552;13.434;2023-01-25T03:32:03;1.80;99.90
13589;DHT22;6865;52.552;13.434;2023-01-25T03:34:30;2.30;99.90
13589;DHT22;6865;52.552;13.434;2023-01-25T03:36:57;2.30;99.90
13589;DHT22;6865;52.552;13.434;2023-01-25T03:39:24;2.40;99.90
13589;DHT22;6865;52.552;13.434;2023-01-25T03:41:50;2.40;99.90
13589;DHT22;6865;52.552;13.434;2023-01-25T03:44:17;2.60;99.90
13589;DHT22;6865;52.552;13.434;2023-01-25T03:46:43;2.30;99.90
13589;DHT22;6865;52.552;13.434;2023-01-25T03:49:10;2.20;99.90
13589;DHT22;6865;52.552;13.434;2023-01-25T03:51:37;2.40;99.90
13589;DHT22;6865;52.552;13.434;2023-01-25T03:54:04;2.20;99.90
13589;DHT22;6865;52.552;13.434;2023-01-25T03:56:30;2.20;99.90
13589;DHT22;6865;52.552;13.434;2023-01-25T03:58:57;2.20;99.90
13589;DHT22;6865;52.552;13.434;2023-01-25T04:01:24;2.20;99.90
13589;DHT22;6865;52.552;13.434;2023-01-25T04:03:50;2.10;99.90
13589;DHT22;6865;52.552;13.434;2023-01-25T04:06:17;2.20;99.90
13589;DHT22;6865;52.552;13.434;2023-01-25T04:08:44;2.20;99.90
13589;DHT22;6865;52.552;13.434;2023-01-25T04:11:10;2.20;99.90
13589;DHT22;6865;52.552;13.434;2023-01-25T04:13:38;2.20;99.90
13589;DHT22;6865;52.552;13.434;2023-01-25T04:16:06;2.30;99.90
13589;DHT22;6865;52.552;13.434;2023-01-25T04:18:33;2.30;99.90
13589;DHT22;6865;52.552;13.434;2023-01-25T04:21:00;2.40;99.90
13589;DHT22;6865;52.552;13.434;2023-01-25T04:23:26;2.40;99.90
13589;DHT22;6865;52.552;13.434;2023-01-25T04:25:57;2.40;99.90
13589;DHT22;6865;52.552;13.434;2023-01-25T04:28:25;2.40;99.90
13589;DHT22;6865;52.552;13.434;2023-01-25T04:30:55;2.40;99.90
13589;DHT22;6865;52.552;13.434;2023-01-25T04:33:23;2.40;99.90
13589;DHT22;6865;52.552;13.434;2023-01-25T04:35:50;2.80;99.90
13589;DHT22;6865;52.552;13.434;2023-01-25T04:38:17;2.30;99.90
13589;DHT22;6865;52.552;13.434;2023-01-25T04:40:44;2.30;99.90
13589;DHT22;6865;52.552;13.434;2023-01-25T04:43:12;2.40;99.90
13589;DHT22;6865;52.552;13.434;2023-01-25T04:45:39;2.50;99.90
13589;DHT22;6865;52.552;13.434;2023-01-25T04:48:07;2.50;99.90
13589;DHT22;6865;52.552;13.434;2023-01-25T04:50:41;2.40;99.90
13589;DHT22;6865;52.552;13.434;2023-01-25T04:53:09;2.40;99.90
13589;DHT22;6865;52.552;13.434;2023-01-25T04:55:36;2.40;99.90
13589;DHT22;6865;52.552;13.434;2023-01-25T04:58:03;2.50;99.90
13589;DHT22;6865;52.552;13.434;2023-01-25T05:00:30;2.40;99.90
13589;DHT22;6865;52.552;13.434;2023-01-25T05:02:57;2.50;99.90
13589;DHT22;6865;52.552;13.434;2023-01-25T05:05:24;2.60;99.90
13589;DHT22;6865;52.552;13.434;2023-01-25T05:07:51;2.60;99.90
13589;DHT22;6865;52.552;13.434;2023-01-25T05:10:17;2.40;99.90
13589;DHT22;6865;52.552;13.434;2023-01-25T05:12:44;2.30;99.90
13589;DHT22;6865;52.552;13.434;2023-01-25T05:15:11;2.30;99.90
13589;DHT22;6865;52.552;13.434;2023-01-25T05:17:38;2.40;99.90
13589;DHT22;6865;52.552;13.434;2023-01-25T05:20:04;2.50;99.90
13589;DHT22;6865;52.552;13.434;2023-01-25T05:22:31;2.50;99.90
13589;DHT22;6865;52.552;13.434;2023-01-25T05:24:58;2.60;99.90
13589;DHT22;6865;52.552;13.434;2023-01-25T05:27:25;2.60;99.90
13589;DHT22;6865;52.552;13.434;2023-01-25T05:29:59;2.60;99.90
13589;DHT22;6865;52.552;13.434;2023-01-25T05:32:26;2.70;99.90
13589;DHT22;6865;52.552;13.434;2023-01-25T05:34:52;2.60;99.90
13589;DHT22;6865;52.552;13.434;2023-01-25T05:37:20;2.60;99.90
13589;DHT22;6865;52.552;13.434;2023-01-25T05:39:47;2.60;99.90
13589;DHT22;6865;52.552;13.434;2023-01-25T05:42:16;2.70;99.90
13589;DHT22;6865;52.552;13.434;2023-01-25T05:44:43;2.80;99.90
13589;DHT22;6865;52.552;13.434;2023-01-25T05:47:14;2.80;99.90
13589;DHT22;6865;52.552;13.434;2023-01-25T05:49:41;2.80;99.90
13589;DHT22;6865;52.552;13.434;2023-01-25T05:52:13;2.80;99.90
13589;DHT22;6865;52.552;13.434;2023-01-25T05:54:40;2.80;99.90
13589;DHT22;6865;52.552;13.434;2023-01-25T05:57:06;2.80;99.90
13589;DHT22;6865;52.552;13.434;2023-01-25T05:59:33;2.80;99.90
13589;DHT22;6865;52.552;13.434;2023-01-25T06:02:00;2.70;99.90
13589;DHT22;6865;52.552;13.434;2023-01-25T06:04:26;2.70;99.90
13589;DHT22;6865;52.552;13.434;2023-01-25T06:06:53;2.70;99.90
13589;DHT22;6865;52.552;13.434;2023-01-25T06:09:20;2.70;99.90
13589;DHT22;6865;52.552;13.434;2023-01-25T06:11:47;2.70;99.90
13589;DHT22;6865;52.552;13.434;2023-01-25T06:14:14;2.80;99.90
13589;DHT22;6865;52.552;13.434;2023-01-25T06:16:41;2.60;99.90
13589;DHT22;6865;52.552;13.434;2023-01-25T06:19:07;2.40;99.90
13589;DHT22;6865;52.552;13.434;2023-01-25T06:21:34;2.60;99.90
13589;DHT22;6865;52.552;13.434;2023-01-25T06:24:03;2.60;99.90
13589;DHT22;6865;52.552;13.434;2023-01-25T06:26:30;2.70;99.90
13589;DHT22;6865;52.552;13.434;2023-01-25T06:28:57;2.70;99.90
13589;DHT22;6865;52.552;13.434;2023-01-25T06:31:24;2.70;99.90
13589;DHT22;6865;52.552;13.434;2023-01-25T06:33:51;2.60;99.90
13589;DHT22;6865;52.552;13.434;2023-01-25T06:36:19;2.70;99.90
13589;DHT22;6865;52.552;13.434;2023-01-25T06:38:50;2.80;99.90
13589;DHT22;6865;52.552;13.434;2023-01-25T06:41:17;2.70;99.90
13589;DHT22;6865;52.552;13.434;2023-01-25T06:43:45;2.60;99.90
13589;DHT22;6865;52.552;13.434;2023-01-25T06:46:12;2.60;99.90
13589;DHT22;6865;52.552;13.434;2023-01-25T06:48:39;2.50;99.90
13589;DHT22;6865;52.552;13.434;2023-01-25T06:51:10;2.40;99.90
13589;DHT22;6865;52.552;13.434;2023-01-25T06:53:40;2.40;99.90
13589;DHT22;6865;52.552;13.434;2023-01-25T06:56:12;2.30;99.90
13589;DHT22;6865;52.552;13.434;2023-01-25T06:58:39;2.20;99.90
13589;DHT22;6865;52.552;13.434;2023-01-25T07:01:13;2.10;99.90
13589;DHT22;6865;52.552;13.434;2023-01-25T07:03:41;2.10;99.90
13589;DHT22;6865;52.552;13.434;2023-01-25T07:06:09;2.30;99.90
13589;DHT22;6865;52.552;13.434;2023-01-25T07:08:36;2.20;99.90
13589;DHT22;6865;52.552;13.434;2023-01-25T07:11:05;2.30;99.90
13589;DHT22;6865;52.552;13.434;2023-01-25T07:13:32;2.30;99.90
13589;DHT22;6865;52.552;13.434;2023-01-25T07:16:02;2.20;99.90
13589;DHT22;6865;52.552;13.434;2023-01-25T07:18:30;2.30;99.90
13589;DHT22;6865;52.552;13.434;2023-01-25T07:21:04;2.40;99.90
13589;DHT22;6865;52.552;13.434;2023-01-25T07:23:32;2.50;99.90
13589;DHT22;6865;52.552;13.434;2023-01-25T07:26:00;2.50;99.90
13589;DHT22;6865;52.552;13.434;2023-01-25T07:28:27;2.60;99.90
13589;DHT22;6865;52.552;13.434;2023-01-25T07:30:54;2.50;99.90
13589;DHT22;6865;52.552;13.434;2023-01-25T07:33:20;2.30;99.90
13589;DHT22;6865;52.552;13.434;2023-01-25T07:35:47;2.10;99.90
13589;DHT22;6865;52.552;13.434;2023-01-25T07:38:16;1.90;99.90
13589;DHT22;6865;52.552;13.434;2023-01-25T07:40:43;2.00;99.90
13589;DHT22;6865;52.552;13.434;2023-01-25T07:43:16;2.10;99.90
13589;DHT22;6865;52.552;13.434;2023-01-25T07:45:42;2.20;99.90
13589;DHT22;6865;52.552;13.434;2023-01-25T07:48:15;2.10;99.90
13589;DHT22;6865;52.552;13.434;2023-01-25T07:50:42;2.30;99.90
13589;DHT22;6865;52.552;13.434;2023-01-25T07:53:12;2.40;99.90
13589;DHT22;6865;52.552;13.434;2023-01-25T07:55:39;2.40;99.90
13589;DHT22;6865;52.552;13.434;2023-01-25T07:58:05;2.40;99.90
13589;DHT22;6865;52.552;13.434;2023-01-25T08:00:32;2.30;99.90
13589;DHT22;6865;52.552;13.434;2023-01-25T08:02:58;2.20;99.90
13589;DHT22;6865;52.552;13.434;2023-01-25T08:05:25;2.10;99.90
13589;DHT22;6865;52.552;13.434;2023-01-25T08:07:52;2.10;99.90
13589;DHT22;6865;52.552;13.434;2023-01-25T08:10:18;2.20;99.90
13589;DHT22;6865;52.552;13.434;2023-01-25T08:12:45;2.30;99.90
13589;DHT22;6865;52.552;13.434;2023-01-25T08:15:12;2.40;99.90
13589;DHT22;6865;52.552;13.434;2023-01-25T08:17:39;2.30;99.90
13589;DHT22;6865;52.552;13.434;2023-01-25T08:20:07;2.30;99.90
13589;DHT22;6865;52.552;13.434;2023-01-25T08:22:34;2.20;99.90
13589;DHT22;6865;52.552;13.434;2023-01-25T08:25:02;2.20;99.90
13589;DHT22;6865;52.552;13.434;2023-01-25T08:27:28;2.10;99.90
13589;DHT22;6865;52.552;13.434;2023-01-25T08:29:55;2.20;99.90
13589;DHT22;6865;52.552;13.434;2023-01-25T08:32:22;2.30;99.90
13589;DHT22;6865;52.552;13.434;2023-01-25T08:34:48;2.60;99.90
13589;DHT22;6865;52.552;13.434;2023-01-25T08:37:15;2.10;99.90
13589;DHT22;6865;52.552;13.434;2023-01-25T08:39:42;2.10;99.90
13589;DHT22;6865;52.552;13.434;2023-01-25T08:42:08;1.50;99.90
13589;DHT22;6865;52.552;13.434;2023-01-25T08:44:35;2.80;99.90
13589;DHT22;6865;52.552;13.434;2023-01-25T08:47:02;2.20;99.90
13589;DHT22;6865;52.552;13.434;2023-01-25T08:49:28;2.10;99.90
13589;DHT22;6865;52.552;13.434;2023-01-25T08:51:56;2.10;99.90
13589;DHT22;6865;52.552;13.434;2023-01-25T08:54:23;2.10;99.90
13589;DHT22;6865;52.552;13.434;2023-01-25T08:56:50;2.00;99.90
13589;DHT22;6865;52.552;13.434;2023-01-25T08:59:17;1.80;99.90
13589;DHT22;6865;52.552;13.434;2023-01-25T09:01:44;1.90;99.90
13589;DHT22;6865;52.552;13.434;2023-01-25T09:04:10;1.90;99.90
13589;DHT22;6865;52.552;13.434;2023-01-25T09:06:37;1.90;99.90
13589;DHT22;6865;52.552;13.434;2023-01-25T09:09:04;1.50;99.90
13589;DHT22;6865;52.552;13.434;2023-01-25T09:11:32;1.80;99.90
13589;DHT22;6865;52.552;13.434;2023-01-25T09:13:59;1.70;99.90
13589;DHT22;6865;52.552;13.434;2023-01-25T09:16:26;1.70;99.90
13589;DHT22;6865;52.552;13.434;2023-01-25T09:18:57;1.70;99.90
13589;DHT22;6865;52.552;13.434;2023-01-25T09:21:24;1.70;99.90
13589;DHT22;6865;52.552;13.434;2023-01-25T09:23:52;1.60;99.90
13589;DHT22;6865;52.552;13.434;2023-01-25T09:26:37;1.60;99.90
13589;DHT22;6865;52.552;13.434;2023-01-25T09:29:04;1.60;99.90
13589;DHT22;6865;52.552;13.434;2023-01-25T09:31:33;1.70;99.90
13589;DHT22;6865;52.552;13.434;2023-01-25T09:34:00;1.80;99.90
13589;DHT22;6865;52.552;13.434;2023-01-25T09:36:27;1.90;99.90
13589;DHT22;6865;52.552;13.434;2023-01-25T09:38:54;1.80;99.90
13589;DHT22;6865;52.552;13.434;2023-01-25T09:47:15;1.70;99.90
13589;DHT22;6865;52.552;13.434;2023-01-25T09:53:14;1.80;99.90
13589;DHT22;6865;52.552;13.434;2023-01-25T09:55:41;1.70;99.90
13589;DHT22;6865;52.552;13.434;2023-01-25T09:58:17;1.70;99.90
13589;DHT22;6865;52.552;13.434;2023-01-25T10:00:45;1.70;99.90
13589;DHT22;6865;52.552;13.434;2023-01-25T10:03:40;2.00;99.90
13589;DHT22;6865;52.552;13.434;2023-01-25T10:06:11;2.00;99.90
13589;DHT22;6865;52.552;13.434;2023-01-25T10:09:18;1.80;99.90
13589;DHT22;6865;52.552;13.434;2023-01-25T10:11:48;1.80;99.90
13589;DHT22;6865;52.552;13.434;2023-01-25T10:14:18;1.80;99.90
13589;DHT22;6865;52.552;13.434;2023-01-25T10:19:37;2.00;99.90
13589;DHT22;6865;52.552;13.434;2023-01-25T10:22:14;1.90;99.90
13589;DHT22;6865;52.552;13.434;2023-01-25T10:28:00;1.70;99.90
13589;DHT22;6865;52.552;13.434;2023-01-25T10:30:41;1.70;99.90
13589;DHT22;6865;52.552;13.434;2023-01-25T10:33:17;1.80;99.90
13589;DHT22;6865;52.552;13.434;2023-01-25T10:35:46;2.00;99.90
13589;DHT22;6865;52.552;13.434;2023-01-25T10:38:24;2.00;99.90
13589;DHT22;6865;52.552;13.434;2023-01-25T10:41:00;2.20;99.90
13589;DHT22;6865;52.552;13.434;2023-01-25T10:43:28;2.20;99.90
13589;DHT22;6865;52.552;13.434;2023-01-25T10:45:54;2.30;99.90
13589;DHT22;6865;52.552;13.434;2023-01-25T10:48:25;2.30;99.90
13589;DHT22;6865;52.552;13.434;2023-01-25T10:50:56;2.40;99.90
13589;DHT22;6865;52.552;13.434;2023-01-25T10:53:34;2.30;99.90
13589;DHT22;6865;52.552;13.434;2023-01-25T10:58:37;2.00;99.90
13589;DHT22;6865;52.552;13.434;2023-01-25T11:01:06;1.90;99.90
13589;DHT22;6865;52.552;13.434;2023-01-25T11:06:01;1.80;99.90
13589;DHT22;6865;52.552;13.434;2023-01-25T11:08:39;1.80;99.90
13589;DHT22;6865;52.552;13.434;2023-01-25T11:11:20;1.70;99.90
13589;DHT22;6865;52.552;13.434;2023-01-25T11:13:48;1.60;99.90
13589;DHT22;6865;52.552;13.434;2023-01-25T11:16:28;1.60;99.90
13589;DHT22;6865;52.552;13.434;2023-01-25T11:18:57;1.60;99.90
13589;DHT22;6865;52.552;13.434;2023-01-25T11:21:32;1.60;99.90
13589;DHT22;6865;52.552;13.434;2023-01-25T11:24:02;1.70;99.90
13589;DHT22;6865;52.552;13.434;2023-01-25T11:26:33;1.60;99.90
13589;DHT22;6865;52.552;13.434;2023-01-25T11:29:16;2.00;99.90
13589;DHT22;6865;52.552;13.434;2023-01-25T11:31:48;1.90;99.90
13589;DHT22;6865;52.552;13.434;2023-01-25T11:34:17;2.00;99.90
13589;DHT22;6865;52.552;13.434;2023-01-25T11:39:43;1.90;99.90
13589;DHT22;6865;52.552;13.434;2023-01-25T11:42:30;2.00;99.90
13589;DHT22;6865;52.552;13.434;2023-01-25T11:45:32;2.10;99.90
13589;DHT22;6865;52.552;13.434;2023-01-25T11:51:11;2.10;99.90
13589;DHT22;6865;52.552;13.434;2023-01-25T11:54:04;2.10;99.90
13589;DHT22;6865;52.552;13.434;2023-01-25T11:56:46;2.10;99.90
13589;DHT22;6865;52.552;13.434;2023-01-25T12:02:43;2.00;99.90
13589;DHT22;6865;52.552;13.434;2023-01-25T12:08:41;1.90;99.90
13589;DHT22;6865;52.552;13.434;2023-01-25T12:11:32;1.70;99.90
13589;DHT22;6865;52.552;13.434;2023-01-25T12:14:21;1.70;99.90
13589;DHT22;6865;52.552;13.434;2023-01-25T12:17:17;1.90;99.90
13589;DHT22;6865;52.552;13.434;2023-01-25T12:20:16;2.00;99.90
13589;DHT22;6865;52.552;13.434;2023-01-25T12:26:11;1.80;99.90
13589;DHT22;6865;52.552;13.434;2023-01-25T12:28:46;1.80;99.90
13589;DHT22;6865;52.552;13.434;2023-01-25T12:31:22;1.80;99.90
13589;DHT22;6865;52.552;13.434;2023-01-25T12:34:09;1.70;99.90
13589;DHT22;6865;52.552;13.434;2023-01-25T12:36:41;1.80;99.90
13589;DHT22;6865;52.552;13.434;2023-01-25T12:39:26;1.60;99.90
13589;DHT22;6865;52.552;13.434;2023-01-25T12:42:16;1.90;99.90
13589;DHT22;6865;52.552;13.434;2023-01-25T12:47:30;2.00;99.90
13589;DHT22;6865;52.552;13.434;2023-01-25T12:50:03;1.90;99.90
13589;DHT22;6865;52.552;13.434;2023-01-25T12:52:40;1.90;99.90
13589;DHT22;6865;52.552;13.434;2023-01-25T12:55:15;1.80;99.90
13589;DHT22;6865;52.552;13.434;2023-01-25T13:00:48;1.70;99.90
13589;DHT22;6865;52.552;13.434;2023-01-25T13:03:30;1.70;99.90
13589;DHT22;6865;52.552;13.434;2023-01-25T13:06:17;1.80;99.90
13589;DHT22;6865;52.552;13.434;2023-01-25T13:09:01;1.70;99.90
13589;DHT22;6865;52.552;13.434;2023-01-25T13:11:37;1.50;99.90
13589;DHT22;6865;52.552;13.434;2023-01-25T13:16:50;1.30;99.90
13589;DHT22;6865;52.552;13.434;2023-01-25T13:22:05;1.40;99.90
13589;DHT22;6865;52.552;13.434;2023-01-25T13:24:33;1.40;99.90
13589;DHT22;6865;52.552;13.434;2023-01-25T13:27:22;1.30;99.90
13589;DHT22;6865;52.552;13.434;2023-01-25T13:30:32;1.40;99.90
13589;DHT22;6865;52.552;13.434;2023-01-25T13:33:04;1.30;99.90
13589;DHT22;6865;52.552;13.434;2023-01-25T13:35:35;1.30;99.90
13589;DHT22;6865;52.552;13.434;2023-01-25T13:38:29;1.30;99.90
13589;DHT22;6865;52.552;13.434;2023-01-25T13:41:03;1.20;99.90
13589;DHT22;6865;52.552;13.434;2023-01-25T13:43:30;1.10;99.90
13589;DHT22;6865;52.552;13.434;2023-01-25T13:45:56;1.30;99.90
13589;DHT22;6865;52.552;13.434;2023-01-25T13:48:25;1.30;99.90
13589;DHT22;6865;52.552;13.434;2023-01-25T13:50:57;1.30;99.90
13589;DHT22;6865;52.552;13.434;2023-01-25T13:53:26;1.50;99.90
13589;DHT22;6865;52.552;13.434;2023-01-25T13:55:57;1.60;99.90
13589;DHT22;6865;52.552;13.434;2023-01-25T13:58:32;1.70;99.90
13589;DHT22;6865;52.552;13.434;2023-01-25T14:01:02;1.80;99.90
13589;DHT22;6865;52.552;13.434;2023-01-25T14:03:46;1.50;99.90
13589;DHT22;6865;52.552;13.434;2023-01-25T14:06:23;1.80;99.90
13589;DHT22;6865;52.552;13.434;2023-01-25T14:08:52;1.80;99.90
13589;DHT22;6865;52.552;13.434;2023-01-25T14:11:22;1.80;99.90
13589;DHT22;6865;52.552;13.434;2023-01-25T14:14:02;1.70;99.90
13589;DHT22;6865;52.552;13.434;2023-01-25T14:16:30;1.70;99.90
13589;DHT22;6865;52.552;13.434;2023-01-25T14:19:24;1.70;99.90
13589;DHT22;6865;52.552;13.434;2023-01-25T14:24:37;1.90;99.90
13589;DHT22;6865;52.552;13.434;2023-01-25T14:27:04;1.90;99.90
13589;DHT22;6865;52.552;13.434;2023-01-25T14:29:32;1.80;99.90
13589;DHT22;6865;52.552;13.434;2023-01-25T14:32:02;1.80;99.90
13589;DHT22;6865;52.552;13.434;2023-01-25T14:34:29;1.80;99.90
13589;DHT22;6865;52.552;13.434;2023-01-25T14:37:17;1.80;99.90
13589;DHT22;6865;52.552;13.434;2023-01-25T14:39:47;1.70;99.90
13589;DHT22;6865;52.552;13.434;2023-01-25T14:42:15;1.70;99.90
13589;DHT22;6865;52.552;13.434;2023-01-25T14:44:43;1.80;99.90
13589;DHT22;6865;52.552;13.434;2023-01-25T14:47:29;1.60;99.90
13589;DHT22;6865;52.552;13.434;2023-01-25T14:50:32;1.70;99.90
13589;DHT22;6865;52.552;13.434;2023-01-25T14:53:06;1.60;99.90
13589;DHT22;6865;52.552;13.434;2023-01-25T14:55:34;1.70;99.90
13589;DHT22;6865;52.552;13.434;2023-01-25T14:58:02;1.70;99.90
13589;DHT22;6865;52.552;13.434;2023-01-25T15:00:28;1.80;99.90
13589;DHT22;6865;52.552;13.434;2023-01-25T15:03:02;1.80;99.90
13589;DHT22;6865;52.552;13.434;2023-01-25T15:05:34;1.70;99.90
13589;DHT22;6865;52.552;13.434;2023-01-25T15:10:35;1.60;99.90
13589;DHT22;6865;52.552;13.434;2023-01-25T15:13:03;1.60;99.90
13589;DHT22;6865;52.552;13.434;2023-01-25T15:15:54;1.60;99.90
13589;DHT22;6865;52.552;13.434;2023-01-25T15:18:40;1.40;99.90
13589;DHT22;6865;52.552;13.434;2023-01-25T15:21:12;1.70;99.90
13589;DHT22;6865;52.552;13.434;2023-01-25T15:23:41;1.70;99.90
13589;DHT22;6865;52.552;13.434;2023-01-25T15:28:39;1.70;99.90
13589;DHT22;6865;52.552;13.434;2023-01-25T15:31:08;1.70;99.90
13589;DHT22;6865;52.552;13.434;2023-01-25T15:33:36;1.70;99.90
13589;DHT22;6865;52.552;13.434;2023-01-25T15:36:04;1.40;99.90
13589;DHT22;6865;52.552;13.434;2023-01-25T15:38:31;1.70;99.90
13589;DHT22;6865;52.552;13.434;2023-01-25T15:40:57;1.70;99.90
13589;DHT22;6865;52.552;13.434;2023-01-25T15:43:27;1.70;99.90
13589;DHT22;6865;52.552;13.434;2023-01-25T15:45:54;1.70;99.90
13589;DHT22;6865;52.552;13.434;2023-01-25T15:48:29;1.70;99.90
13589;DHT22;6865;52.552;13.434;2023-01-25T15:50:56;1.70;99.90
13589;DHT22;6865;52.552;13.434;2023-01-25T15:53:23;1.70;99.90
13589;DHT22;6865;52.552;13.434;2023-01-25T15:55:56;1.50;99.90
13589;DHT22;6865;52.552;13.434;2023-01-25T15:58:29;1.60;99.90
13589;DHT22;6865;52.552;13.434;2023-01-25T16:00:57;1.50;99.90
13589;DHT22;6865;52.552;13.434;2023-01-25T16:03:26;1.60;99.90
13589;DHT22;6865;52.552;13.434;2023-01-25T16:05:57;1.60;99.90
13589;DHT22;6865;52.552;13.434;2023-01-25T16:08:24;1.50;99.90
13589;DHT22;6865;52.552;13.434;2023-01-25T16:10:50;1.40;99.90
13589;DHT22;6865;52.552;13.434;2023-01-25T16:13:17;1.40;99.90
13589;DHT22;6865;52.552;13.434;2023-01-25T16:15:48;1.30;99.90
13589;DHT22;6865;52.552;13.434;2023-01-25T16:18:15;1.20;99.90
13589;DHT22;6865;52.552;13.434;2023-01-25T16:20:41;1.10;99.90
13589;DHT22;6865;52.552;13.434;2023-01-25T16:23:09;1.10;99.90
13589;DHT22;6865;52.552;13.434;2023-01-25T16:25:39;1.10;99.90
13589;DHT22;6865;52.552;13.434;2023-01-25T16:28:13;1.00;99.90
13589;DHT22;6865;52.552;13.434;2023-01-25T16:30:40;1.00;99.90
13589;DHT22;6865;52.552;13.434;2023-01-25T16:33:07;0.90;99.90
13589;DHT22;6865;52.552;13.434;2023-01-25T16:35:33;0.80;99.90
13589;DHT22;6865;52.552;13.434;2023-01-25T16:38:00;0.90;99.90
13589;DHT22;6865;52.552;13.434;2023-01-25T16:40:32;0.90;99.90
13589;DHT22;6865;52.552;13.434;2023-01-25T16:43:02;1.00;99.90
13589;DHT22;6865;52.552;13.434;2023-01-25T16:45:29;1.10;99.90
13589;DHT22;6865;52.552;13.434;2023-01-25T16:47:56;1.20;99.90
13589;DHT22;6865;52.552;13.434;2023-01-25T16:50:23;1.20;99.90
13589;DHT22;6865;52.552;13.434;2023-01-25T16:52:50;1.10;99.90
13589;DHT22;6865;52.552;13.434;2023-01-25T16:55:18;1.00;99.90
13589;DHT22;6865;52.552;13.434;2023-01-25T16:57:48;1.20;99.90
13589;DHT22;6865;52.552;13.434;2023-01-25T17:00:16;1.20;99.90
13589;DHT22;6865;52.552;13.434;2023-01-25T17:02:43;1.20;99.90
13589;DHT22;6865;52.552;13.434;2023-01-25T17:05:25;1.30;99.90
13589;DHT22;6865;52.552;13.434;2023-01-25T17:07:54;1.20;99.90
13589;DHT22;6865;52.552;13.434;2023-01-25T17:10:21;1.30;99.90